Time;durP1;ratioP1;P1;durP2;ratioP2;P2;SDS_P1;SDS_P2;PMS_P1;PMS_P2;Temp;Humidity;BMP_temperature;BMP_pressure;BME280_temperature;BME280_humidity;BME280_pressure;Samples;Min_cycle;Max_cycle;Signal;HPM_P1;HPM_P2
2022/01/10 00:01:00;;;;;;;4.27;3.70;;;;;;;7.37;97.61;93363.97;5036241;28;20474;-90
2022/01/10 00:03:27;;;;;;;4.67;3.67;;;;;;;7.32;98.02;93369.63;5035925;28;20847;-91
2022/01/10 00:05:54;;;;;;;7.67;4.37;;;;;;;7.32;97.73;93364.44;5035848;28;20441;-91
2022/01/10 00:08:21;;;;;;;5.10;3.60;;;;;;;7.32;97.79;93366.22;5035469;28;20473;-90
2022/01/10 00:10:50;;;;;;;5.80;4.47;;;;;;;7.45;97.28;93364.88;5034324;28;20457;-90
2022/01/10 00:13:17;;;;;;;7.40;5.53;;;;;;;7.39;97.79;93368.06;5035806;28;20444;-90
2022/01/10 00:15:46;;;;;;;9.37;5.40;;;;;;;7.40;97.65;93367.09;5035322;28;21042;-91
2022/01/10 00:18:13;;;;;;;10.60;5.60;;;;;;;7.56;96.94;93366.44;5035441;28;20449;-89
2022/01/10 00:20:40;;;;;;;8.00;6.10;;;;;;;7.64;97.21;93368.31;5035956;28;20448;-90
2022/01/10 00:23:06;;;;;;;7.93;5.33;;;;;;;7.71;96.21;93371.94;5035787;28;20434;-91
2022/01/10 00:25:33;;;;;;;6.10;4.83;;;;;;;7.78;95.48;93372.97;5035119;28;20458;-90
2022/01/10 00:28:00;;;;;;;6.83;5.70;;;;;;;7.85;95.53;93368.81;5035369;28;20458;-86
2022/01/10 00:30:27;;;;;;;8.73;4.70;;;;;;;7.91;95.78;93370.81;5035306;28;20453;-91
2022/01/10 00:32:55;;;;;;;6.77;5.60;;;;;;;7.98;94.50;93376.25;5035142;28;20901;-89
2022/01/10 00:35:22;;;;;;;8.93;5.63;;;;;;;8.00;93.98;93369.91;5035006;28;20497;-90
2022/01/10 00:37:51;;;;;;;6.40;5.77;;;;;;;8.02;93.90;93373.19;5016947;28;20453;-91
2022/01/10 00:40:19;;;;;;;9.00;5.37;;;;;;;8.01;94.27;93371.53;5035194;28;20446;-90
2022/01/10 00:42:53;;;;;;;6.43;4.80;;;;;;;8.02;93.84;93362.72;5035324;28;20462;-89
2022/01/10 00:45:23;;;;;;;4.93;4.40;;;;;;;8.05;93.54;93372.06;5034896;28;20484;-91
2022/01/10 00:47:52;;;;;;;5.10;4.40;;;;;;;8.07;93.37;93370.09;5034139;28;20462;-90
2022/01/10 00:50:21;;;;;;;7.20;4.60;;;;;;;8.11;93.23;93362.81;5035078;28;20454;-91
2022/01/10 00:52:48;;;;;;;6.33;4.53;;;;;;;8.13;93.23;93361.69;5034687;28;20458;-91
2022/01/10 00:55:15;;;;;;;6.20;4.37;;;;;;;8.14;93.38;93359.88;5034641;28;20482;-88
2022/01/10 00:57:42;;;;;;;5.43;3.97;;;;;;;8.15;93.20;93356.31;5034612;28;20447;-90
2022/01/10 01:00:11;;;;;;;3.77;3.20;;;;;;;8.12;93.36;93354.81;5034530;28;20490;-91
2022/01/10 01:02:38;;;;;;;4.17;3.77;;;;;;;8.11;93.98;93357.59;5034944;28;20437;-89
2022/01/10 01:05:09;;;;;;;5.20;4.70;;;;;;;8.07;93.55;93360.47;5034868;28;20442;-91
2022/01/10 01:07:38;;;;;;;4.57;4.10;;;;;;;8.12;94.36;93361.84;5035068;28;20937;-91
2022/01/10 01:10:23;;;;;;;5.83;3.93;;;;;;;8.17;93.75;93357.78;5000181;28;20469;-90
2022/01/10 01:12:57;;;;;;;4.80;3.93;;;;;;;8.19;93.26;93360.25;5034826;28;20446;-91
2022/01/10 01:15:29;;;;;;;4.80;4.50;;;;;;;8.21;93.54;93353.88;5035051;28;20481;-90
2022/01/10 01:18:14;;;;;;;6.57;5.10;;;;;;;8.23;93.00;93361.56;5034848;28;20527;-91
2022/01/10 01:23:59;;;;;;;50.70;21.40;;;;;;;8.13;93.11;93351.22;4999979;28;20452;-90
2022/01/10 01:26:23;;;;;;;16.93;9.40;;;;;;;7.68;95.79;93349.56;4974002;28;20440;-90
2022/01/10 01:28:53;;;;;;;18.97;11.10;;;;;;;7.47;97.55;93342.03;4973485;28;20801;-89
2022/01/10 01:31:20;;;;;;;13.30;8.40;;;;;;;7.51;97.94;93344.34;4973852;28;20445;-89
2022/01/10 01:33:47;;;;;;;13.07;8.10;;;;;;;7.47;98.33;93341.22;4973647;28;20445;-90
2022/01/10 01:36:16;;;;;;;10.00;6.20;;;;;;;7.40;98.76;93338.41;4973549;28;20503;-91
2022/01/10 01:38:44;;;;;;;5.27;4.70;;;;;;;7.49;98.58;93338.47;4973457;28;20454;-90
2022/01/10 01:41:22;;;;;;;5.63;4.40;;;;;;;7.49;98.69;93330.63;4973753;28;20451;-91
2022/01/10 01:43:52;;;;;;;5.67;4.73;;;;;;;7.46;98.66;93329.97;4973374;28;20459;-90
2022/01/10 01:46:20;;;;;;;10.67;6.30;;;;;;;7.26;99.53;93333.72;4973641;28;20542;-91
2022/01/10 01:48:48;;;;;;;11.70;4.83;;;;;;;7.33;98.99;93329.53;4973489;28;20959;-91
2022/01/10 01:51:15;;;;;;;11.03;6.90;;;;;;;7.22;99.93;93324.53;4973364;28;20445;-90
2022/01/10 01:53:44;;;;;;;11.20;6.90;;;;;;;7.23;99.79;93327.94;4973133;28;20467;-91
2022/01/10 01:56:13;;;;;;;13.60;7.40;;;;;;;7.06;100.00;93319.16;4972971;28;20489;-90
2022/01/10 01:58:42;;;;;;;14.43;8.97;;;;;;;7.14;100.00;93319.22;4973881;28;20547;-91
2022/01/10 02:01:10;;;;;;;13.20;8.07;;;;;;;7.09;100.00;93326.69;4977315;28;20450;-92
2022/01/10 02:03:38;;;;;;;12.20;8.23;;;;;;;7.03;100.00;93324.66;5023026;28;20441;-91
2022/01/10 02:06:06;;;;;;;7.00;5.50;;;;;;;6.88;100.00;93319.13;5038409;28;20467;-91
2022/01/10 02:08:34;;;;;;;8.70;6.03;;;;;;;6.97;100.00;93325.28;5037704;28;20451;-90
2022/01/10 02:11:03;;;;;;;5.33;4.80;;;;;;;6.84;100.00;93320.38;5038397;28;20451;-90
2022/01/10 02:13:29;;;;;;;8.73;5.50;;;;;;;6.75;100.00;93324.69;5037874;28;20456;-89
2022/01/10 02:16:00;;;;;;;10.27;6.53;;;;;;;6.53;100.00;93325.06;5037523;28;20484;-90
2022/01/10 02:18:27;;;;;;;10.43;6.30;;;;;;;6.50;100.00;93328.78;5038134;28;20529;-89
2022/01/10 02:21:00;;;;;;;10.07;6.47;;;;;;;6.58;100.00;93329.84;5037872;28;20453;-90
2022/01/10 02:23:28;;;;;;;9.40;6.40;;;;;;;6.52;100.00;93328.66;5037976;28;20476;-91
2022/01/10 02:25:56;;;;;;;9.23;6.13;;;;;;;6.49;100.00;93324.56;5037282;28;20456;-91
2022/01/10 02:28:24;;;;;;;8.27;6.07;;;;;;;6.52;100.00;93320.84;5037620;28;20479;-90
2022/01/10 02:30:56;;;;;;;10.83;7.40;;;;;;;6.44;100.00;93325.94;5037551;28;20445;-91
2022/01/10 02:33:23;;;;;;;10.50;8.43;;;;;;;6.35;100.00;93321.59;5037435;28;20448;-89
2022/01/10 02:35:58;;;;;;;9.97;7.60;;;;;;;6.38;100.00;93316.13;5037501;28;20503;-92
2022/01/10 02:38:27;;;;;;;12.77;7.73;;;;;;;6.53;100.00;93322.47;5037594;28;20458;-91
2022/01/10 02:40:55;;;;;;;11.63;6.30;;;;;;;6.35;100.00;93330.22;5036990;28;20443;-90
2022/01/10 02:43:22;;;;;;;10.83;7.57;;;;;;;6.36;100.00;93320.63;5037806;28;20452;-92
2022/01/10 02:45:49;;;;;;;10.20;6.97;;;;;;;6.36;100.00;93328.44;5037868;28;20457;-91
2022/01/10 02:48:16;;;;;;;8.63;7.20;;;;;;;6.42;100.00;93333.09;5036918;28;21006;-92
2022/01/10 02:50:45;;;;;;;8.17;6.73;;;;;;;6.34;100.00;93331.19;5037349;28;20864;-92
2022/01/10 02:53:12;;;;;;;9.60;7.37;;;;;;;6.21;100.00;93341.13;5037405;28;20456;-91
2022/01/10 02:55:41;;;;;;;18.43;9.23;;;;;;;6.25;100.00;93339.88;5037354;28;20447;-91
2022/01/10 02:58:08;;;;;;;13.23;8.10;;;;;;;6.32;100.00;93337.50;5043142;28;20449;-86
2022/01/10 03:00:37;;;;;;;17.00;9.57;;;;;;;6.36;100.00;93344.06;5054800;28;20499;-88
2022/01/10 03:03:06;;;;;;;13.13;8.70;;;;;;;6.21;100.00;93344.53;5052542;28;20973;-91
2022/01/10 03:05:34;;;;;;;13.93;8.53;;;;;;;6.22;100.00;93337.53;5038763;28;20475;-91
2022/01/10 03:08:03;;;;;;;11.90;9.13;;;;;;;6.21;100.00;93334.13;5038984;28;20455;-91
2022/01/10 03:10:30;;;;;;;18.03;9.57;;;;;;;6.14;100.00;93330.44;5038179;28;20455;-91
2022/01/10 03:13:00;;;;;;;14.10;8.43;;;;;;;6.17;100.00;93334.56;5037838;28;20509;-90
2022/01/10 03:15:28;;;;;;;12.67;9.20;;;;;;;6.25;100.00;93342.47;5036734;28;20445;-92
2022/01/10 03:17:57;;;;;;;17.10;9.13;;;;;;;6.35;100.00;93338.03;5036635;28;20475;-91
2022/01/10 03:20:24;;;;;;;13.13;9.00;;;;;;;6.39;100.00;93349.00;5036888;28;20460;-93
2022/01/10 03:22:51;;;;;;;16.53;9.07;;;;;;;6.49;100.00;93344.56;5036553;28;20951;-92
2022/01/10 03:25:19;;;;;;;13.57;9.30;;;;;;;6.62;100.00;93339.03;5036783;28;20460;-92
2022/01/10 03:27:49;;;;;;;15.60;9.30;;;;;;;6.64;100.00;93337.91;5036655;28;20962;-91
2022/01/10 03:30:17;;;;;;;11.80;8.93;;;;;;;6.66;100.00;93330.78;5036761;28;20460;-91
2022/01/10 03:32:47;;;;;;;13.20;8.40;;;;;;;6.70;100.00;93336.53;5036562;28;20460;-91
2022/01/10 03:35:17;;;;;;;13.27;9.07;;;;;;;6.56;100.00;93340.41;5036764;28;20540;-91
2022/01/10 03:37:44;;;;;;;15.30;8.13;;;;;;;6.59;100.00;93334.91;5036366;28;20487;-91
2022/01/10 03:40:12;;;;;;;11.03;8.80;;;;;;;6.63;100.00;93338.06;5039122;28;20453;-89
2022/01/10 03:42:39;;;;;;;16.60;8.67;;;;;;;6.62;100.00;93345.06;5050845;28;20456;-90
2022/01/10 03:45:07;;;;;;;13.20;8.37;;;;;;;6.60;100.00;93344.38;5047859;28;20447;-92
2022/01/10 03:47:36;;;;;;;10.20;7.90;;;;;;;6.52;100.00;93352.09;5036604;28;20452;-91
2022/01/10 03:50:04;;;;;;;8.97;6.77;;;;;;;6.42;100.00;93348.72;5037025;28;20454;-91
2022/01/10 03:52:32;;;;;;;8.57;6.30;;;;;;;6.32;100.00;93353.13;5037013;28;21021;-92
2022/01/10 03:55:01;;;;;;;7.10;5.70;;;;;;;6.39;100.00;93349.00;5036348;28;20448;-93
2022/01/10 03:57:28;;;;;;;6.87;6.17;;;;;;;6.44;100.00;93352.81;5036287;28;20486;-91
2022/01/10 03:59:55;;;;;;;8.70;7.03;;;;;;;6.26;100.00;93358.91;5036475;28;20494;-92
2022/01/10 04:02:24;;;;;;;8.60;6.40;;;;;;;6.35;100.00;93363.25;5036427;28;21224;-92
2022/01/10 04:04:52;;;;;;;6.70;5.90;;;;;;;6.42;100.00;93359.97;5036517;28;20465;-92
2022/01/10 04:07:19;;;;;;;6.00;5.37;;;;;;;6.20;100.00;93366.34;5036548;28;20536;-91
2022/01/10 04:09:47;;;;;;;6.87;6.23;;;;;;;6.32;100.00;93371.38;5036128;28;20457;-91
2022/01/10 04:12:14;;;;;;;9.33;6.07;;;;;;;6.38;100.00;93365.59;5036571;28;20511;-91
2022/01/10 04:14:42;;;;;;;6.03;5.03;;;;;;;6.40;100.00;93366.28;5035786;28;20501;-91
2022/01/10 04:17:09;;;;;;;7.20;5.33;;;;;;;6.42;100.00;93369.56;5035770;28;20480;-91
2022/01/10 04:19:36;;;;;;;6.43;5.37;;;;;;;6.46;100.00;93365.72;5035935;28;20453;-91
2022/01/10 04:22:05;;;;;;;6.67;5.47;;;;;;;6.49;100.00;93371.44;5036062;28;20537;-92
2022/01/10 04:24:32;;;;;;;9.30;6.20;;;;;;;6.55;100.00;93370.06;5035603;28;20795;-92
2022/01/10 04:26:59;;;;;;;6.80;6.10;;;;;;;6.57;100.00;93373.34;5035468;28;20456;-92
2022/01/10 04:29:26;;;;;;;8.03;5.40;;;;;;;6.53;100.00;93379.81;5035605;28;20460;-92
2022/01/10 04:31:53;;;;;;;7.63;5.67;;;;;;;6.62;100.00;93384.16;5036061;28;20492;-92
2022/01/10 04:34:20;;;;;;;5.80;5.10;;;;;;;6.74;100.00;93390.84;5035609;28;20466;-92
2022/01/10 04:36:47;;;;;;;9.07;6.17;;;;;;;6.77;100.00;93384.50;5035456;28;20571;-92
2022/01/10 04:39:15;;;;;;;10.17;5.50;;;;;;;6.81;100.00;93393.69;5035250;28;20460;-92
2022/01/10 04:41:42;;;;;;;9.30;7.90;;;;;;;6.83;100.00;93394.34;5035537;28;20449;-91
2022/01/10 04:44:09;;;;;;;20.63;10.40;;;;;;;6.81;100.00;93396.28;5035207;28;20454;-92
2022/01/10 04:46:36;;;;;;;14.73;10.03;;;;;;;6.73;100.00;93404.84;5035241;28;20460;-90
2022/01/10 04:49:05;;;;;;;16.70;10.33;;;;;;;6.61;100.00;93395.53;5035329;28;20455;-92
2022/01/10 04:51:32;;;;;;;21.13;14.90;;;;;;;6.50;100.00;93403.53;5035094;28;20463;-90
2022/01/10 04:54:00;;;;;;;17.63;11.67;;;;;;;6.30;100.00;93400.16;5035324;28;20463;-89
2022/01/10 04:56:30;;;;;;;13.03;8.40;;;;;;;6.33;100.00;93397.28;5034720;28;20484;-91
2022/01/10 04:58:57;;;;;;;9.50;6.30;;;;;;;6.21;100.00;93399.22;5035271;28;20806;-92
2022/01/10 05:01:24;;;;;;;13.10;6.67;;;;;;;6.11;100.00;93405.44;5035302;28;20466;-91
2022/01/10 05:03:52;;;;;;;10.27;7.87;;;;;;;6.08;100.00;93403.94;5035526;28;20859;-92
2022/01/10 05:06:19;;;;;;;10.07;7.77;;;;;;;6.08;100.00;93408.31;5034783;28;20550;-93
2022/01/10 05:08:46;;;;;;;10.07;7.30;;;;;;;5.91;100.00;93409.84;5034629;28;20496;-92
2022/01/10 05:11:13;;;;;;;8.50;7.60;;;;;;;5.87;100.00;93406.66;5034891;28;20460;-92
2022/01/10 05:13:41;;;;;;;10.00;6.57;;;;;;;5.78;100.00;93407.50;5034599;28;20982;-92
2022/01/10 05:16:08;;;;;;;13.47;7.73;;;;;;;5.89;100.00;93403.91;5034698;28;20470;-91
2022/01/10 05:18:38;;;;;;;13.03;7.93;;;;;;;5.89;100.00;93419.53;5035097;28;20452;-92
2022/01/10 05:21:05;;;;;;;12.33;7.07;;;;;;;5.99;100.00;93417.75;5034731;28;20538;-92
2022/01/10 05:23:32;;;;;;;8.93;6.00;;;;;;;5.98;100.00;93423.94;5035102;28;20461;-89
2022/01/10 05:25:59;;;;;;;6.60;6.00;;;;;;;5.78;100.00;93417.06;5034459;28;20456;-90
2022/01/10 05:28:26;;;;;;;7.40;6.40;;;;;;;5.84;100.00;93424.34;5034686;28;20957;-90
2022/01/10 05:30:55;;;;;;;8.10;5.47;;;;;;;5.78;100.00;93432.66;5034462;28;20460;-93
2022/01/10 05:33:22;;;;;;;9.93;7.50;;;;;;;5.56;100.00;93428.56;5033768;28;20548;-90
2022/01/10 05:35:49;;;;;;;15.73;9.70;;;;;;;5.63;100.00;93436.66;5034297;28;20451;-90
2022/01/10 05:38:16;;;;;;;9.60;6.30;;;;;;;5.42;100.00;93432.38;5034077;28;20487;-91
2022/01/10 05:40:44;;;;;;;9.20;6.47;;;;;;;5.39;100.00;93437.84;5034353;28;20538;-90
2022/01/10 05:43:11;;;;;;;11.63;8.77;;;;;;;5.33;100.00;93440.19;5034089;28;20933;-89
2022/01/10 05:45:39;;;;;;;13.30;8.80;;;;;;;5.34;100.00;93444.44;5034543;28;20462;-91
2022/01/10 05:48:13;;;;;;;25.77;12.30;;;;;;;5.26;100.00;93448.53;5033920;28;20447;-90
2022/01/10 05:50:42;;;;;;;25.53;14.67;;;;;;;5.43;100.00;93444.44;5034298;28;20443;-91
2022/01/10 05:53:10;;;;;;;24.13;13.67;;;;;;;5.46;100.00;93438.97;5034400;28;20476;-89
2022/01/10 05:55:38;;;;;;;21.13;11.50;;;;;;;5.38;100.00;93446.63;5034259;28;20518;-92
2022/01/10 05:58:05;;;;;;;12.47;8.80;;;;;;;5.41;100.00;93450.72;5034061;28;20478;-92
2022/01/10 06:00:33;;;;;;;9.30;8.33;;;;;;;5.46;100.00;93451.97;5034407;28;20467;-92
2022/01/10 06:03:00;;;;;;;15.70;9.77;;;;;;;5.52;100.00;93448.84;5034714;28;20452;-88
2022/01/10 06:05:31;;;;;;;15.03;10.40;;;;;;;5.38;100.00;93451.00;5034045;28;20451;-90
2022/01/10 06:07:58;;;;;;;10.43;7.03;;;;;;;5.32;100.00;93452.38;5034039;28;20460;-90
2022/01/10 06:10:25;;;;;;;13.97;8.60;;;;;;;5.22;100.00;93464.53;5034745;28;20458;-91
2022/01/10 06:12:53;;;;;;;9.63;7.00;;;;;;;5.30;100.00;93459.47;5034181;28;20463;-90
2022/01/10 06:15:20;;;;;;;8.40;7.50;;;;;;;5.26;100.00;93453.72;5033951;28;20465;-89
2022/01/10 06:17:47;;;;;;;12.50;6.83;;;;;;;5.17;100.00;93464.91;5034102;28;20480;-90
2022/01/10 06:20:14;;;;;;;9.77;6.33;;;;;;;5.05;100.00;93463.38;5033826;28;20466;-88
2022/01/10 06:22:43;;;;;;;8.80;6.97;;;;;;;5.07;100.00;93465.84;5034080;28;20457;-88
2022/01/10 06:25:13;;;;;;;12.63;6.90;;;;;;;5.29;100.00;93463.03;5034454;28;20454;-89
2022/01/10 06:27:40;;;;;;;9.97;6.43;;;;;;;5.32;100.00;93467.16;5033596;28;20439;-89
2022/01/10 06:30:08;;;;;;;8.40;6.07;;;;;;;5.28;100.00;93461.41;5033389;28;20946;-89
2022/01/10 06:32:35;;;;;;;11.70;6.60;;;;;;;5.34;100.00;93467.84;5033589;28;20455;-90
2022/01/10 06:35:02;;;;;;;9.90;7.27;;;;;;;5.31;100.00;93478.50;5033835;28;20949;-89
2022/01/10 06:37:29;;;;;;;11.10;6.23;;;;;;;5.30;100.00;93469.88;5033468;28;20487;-89
2022/01/10 06:39:58;;;;;;;8.23;6.07;;;;;;;5.29;100.00;93476.88;5033350;28;20954;-91
2022/01/10 06:42:25;;;;;;;11.00;7.90;;;;;;;5.26;100.00;93473.72;5033456;28;20541;-91
2022/01/10 06:44:52;;;;;;;12.20;7.47;;;;;;;5.35;100.00;93488.50;5033616;28;20436;-89
2022/01/10 06:47:19;;;;;;;12.27;7.87;;;;;;;5.22;100.00;93490.53;5036552;28;20459;-91
2022/01/10 06:49:46;;;;;;;8.73;5.97;;;;;;;5.23;100.00;93487.81;5037137;28;20451;-89
2022/01/10 06:52:12;;;;;;;14.23;7.73;;;;;;;5.32;100.00;93491.38;5037070;28;20450;-87
2022/01/10 06:54:40;;;;;;;10.70;6.80;;;;;;;5.15;100.00;93494.59;5037230;28;20992;-88
2022/01/10 06:57:08;;;;;;;16.47;9.70;;;;;;;5.21;100.00;93494.09;5036593;28;20486;-88
2022/01/10 06:59:35;;;;;;;16.53;9.60;;;;;;;5.27;100.00;93490.97;5036749;28;20487;-88
2022/01/10 07:02:02;;;;;;;13.80;9.40;;;;;;;5.22;100.00;93488.75;5036936;28;20447;-88
2022/01/10 07:04:29;;;;;;;12.90;9.20;;;;;;;5.13;100.00;93491.31;5037166;28;20446;-88
2022/01/10 07:06:57;;;;;;;14.27;8.93;;;;;;;5.06;100.00;93498.00;5037020;28;20463;-87
2022/01/10 07:09:24;;;;;;;11.57;7.53;;;;;;;5.12;100.00;93493.09;5036398;28;20458;-88
2022/01/10 07:11:51;;;;;;;11.90;7.70;;;;;;;5.04;100.00;93492.09;5036197;28;20456;-87
2022/01/10 07:14:19;;;;;;;11.87;8.33;;;;;;;5.14;100.00;93498.16;5035951;28;20455;-87
2022/01/10 07:16:48;;;;;;;12.90;8.60;;;;;;;5.32;100.00;93503.56;5036656;28;20451;-88
2022/01/10 07:19:15;;;;;;;15.67;9.43;;;;;;;5.41;100.00;93502.75;5036436;28;20893;-87
2022/01/10 07:21:43;;;;;;;16.43;9.10;;;;;;;5.51;100.00;93501.00;5036551;28;20825;-87
2022/01/10 07:24:10;;;;;;;17.43;10.53;;;;;;;5.42;100.00;93505.22;5035980;28;20933;-88
2022/01/10 07:26:37;;;;;;;16.17;13.13;;;;;;;5.37;100.00;93507.41;5036261;28;20447;-87
2022/01/10 07:29:07;;;;;;;18.60;11.47;;;;;;;5.44;100.00;93507.69;5036242;28;20444;-88
2022/01/10 07:31:35;;;;;;;21.73;11.10;;;;;;;5.59;100.00;93512.38;5036506;28;20474;-87
2022/01/10 07:34:02;;;;;;;17.70;10.83;;;;;;;5.63;100.00;93517.31;5036629;28;20443;-88
2022/01/10 07:36:30;;;;;;;15.93;10.50;;;;;;;5.79;100.00;93528.03;5036130;28;20447;-88
2022/01/10 07:38:57;;;;;;;14.10;10.83;;;;;;;5.77;100.00;93525.53;5036352;28;21084;-87
2022/01/10 07:41:24;;;;;;;13.37;10.07;;;;;;;5.79;100.00;93526.25;5036365;28;20446;-88
2022/01/10 07:43:51;;;;;;;12.53;8.93;;;;;;;5.93;100.00;93530.25;5044044;28;20452;-87
2022/01/10 07:46:20;;;;;;;14.80;8.73;;;;;;;5.95;100.00;93538.75;5046479;28;20531;-88
2022/01/10 07:48:49;;;;;;;11.67;8.60;;;;;;;6.08;100.00;93528.09;5038908;28;20456;-90
2022/01/10 07:51:16;;;;;;;12.87;9.30;;;;;;;6.17;100.00;93532.47;5035805;28;20444;-88
2022/01/10 07:53:44;;;;;;;9.57;8.57;;;;;;;6.23;100.00;93531.91;5036207;28;20456;-91
2022/01/10 07:56:11;;;;;;;16.27;11.90;;;;;;;6.25;100.00;93534.38;5035486;28;20463;-89
2022/01/10 07:58:38;;;;;;;21.53;11.30;;;;;;;6.31;100.00;93529.44;5035389;28;20488;-89
2022/01/10 08:01:06;;;;;;;20.47;13.47;;;;;;;6.36;100.00;93526.41;5034881;28;20480;-90
2022/01/10 08:03:33;;;;;;;17.67;13.67;;;;;;;6.46;100.00;93537.66;5035733;28;20792;-89
2022/01/10 08:06:01;;;;;;;18.55;13.40;;;;;;;6.48;100.00;93533.16;5000493;28;20540;-88
2022/01/10 08:08:29;;;;;;;21.27;12.93;;;;;;;6.47;100.00;93531.50;5035787;28;20204;-89
2022/01/10 08:10:56;;;;;;;13.73;10.37;;;;;;;6.41;100.00;93532.06;5035447;28;20860;-88
2022/01/10 08:13:23;;;;;;;13.57;9.10;;;;;;;6.31;100.00;93539.88;5035864;28;20452;-89
2022/01/10 08:15:50;;;;;;;15.60;9.73;;;;;;;6.28;100.00;93539.31;5035375;28;20459;-89
2022/01/10 08:18:18;;;;;;;11.80;9.03;;;;;;;6.34;100.00;93538.75;5034821;28;20551;-88
2022/01/10 08:20:45;;;;;;;13.43;9.57;;;;;;;6.46;100.00;93535.88;5035174;28;20453;-88
2022/01/10 08:23:14;;;;;;;14.23;9.80;;;;;;;6.52;100.00;93537.94;5035112;28;20547;-88
2022/01/10 08:25:41;;;;;;;14.17;10.37;;;;;;;6.55;100.00;93536.84;5035248;28;20974;-88
2022/01/10 08:28:08;;;;;;;13.17;10.60;;;;;;;6.65;100.00;93532.44;5035212;28;20460;-88
2022/01/10 08:30:36;;;;;;;18.33;13.63;;;;;;;6.75;100.00;93538.44;5034908;28;20454;-89
2022/01/10 08:33:03;;;;;;;19.40;13.10;;;;;;;6.87;100.00;93533.88;5034745;28;20956;-88
2022/01/10 08:35:30;;;;;;;18.50;13.47;;;;;;;6.94;100.00;93541.97;5036531;28;20459;-87
2022/01/10 08:37:57;;;;;;;21.17;14.37;;;;;;;6.99;100.00;93543.19;5044689;28;20483;-86
2022/01/10 08:40:25;;;;;;;19.97;12.67;;;;;;;7.04;100.00;93546.19;5044656;28;20448;-89
2022/01/10 08:42:52;;;;;;;21.60;12.33;;;;;;;7.02;100.00;93542.09;5034985;28;20936;-91
2022/01/10 08:45:19;;;;;;;17.27;11.33;;;;;;;7.05;100.00;93545.25;5035097;28;20456;-91
2022/01/10 08:47:47;;;;;;;16.33;12.50;;;;;;;7.07;100.00;93545.91;5035112;28;20459;-91
2022/01/10 08:50:15;;;;;;;17.23;10.57;;;;;;;7.03;100.00;93547.16;5035674;28;20939;-90
2022/01/10 08:52:42;;;;;;;19.17;12.10;;;;;;;6.91;100.00;93547.47;5034864;28;20464;-90
2022/01/10 08:55:10;;;;;;;24.50;12.60;;;;;;;6.87;100.00;93546.09;5034643;28;20449;-89
2022/01/10 08:57:39;;;;;;;16.27;10.90;;;;;;;6.64;100.00;93546.41;5034832;28;20474;-90
2022/01/10 09:00:08;;;;;;;17.90;10.90;;;;;;;6.76;100.00;93540.09;5034498;28;20484;-89
2022/01/10 09:02:35;;;;;;;12.37;8.93;;;;;;;6.66;100.00;93549.72;5035078;28;20445;-91
2022/01/10 09:05:03;;;;;;;15.10;9.73;;;;;;;6.58;100.00;93540.94;5034730;28;20458;-90
2022/01/10 09:07:30;;;;;;;11.13;8.27;;;;;;;6.60;100.00;93546.84;5034965;28;20456;-90
2022/01/10 09:09:57;;;;;;;22.63;8.20;;;;;;;6.47;100.00;93545.34;5034507;28;20456;-89
2022/01/10 09:12:24;;;;;;;20.17;10.83;;;;;;;6.55;100.00;93547.25;5035227;28;20455;-91
2022/01/10 09:14:52;;;;;;;14.83;7.90;;;;;;;6.45;100.00;93551.66;5034639;28;20446;-89
2022/01/10 09:17:19;;;;;;;12.23;8.60;;;;;;;6.46;100.00;93550.69;5034633;28;20455;-90
2022/01/10 09:19:46;;;;;;;14.27;8.17;;;;;;;6.25;100.00;93556.03;5034221;28;20480;-91
2022/01/10 09:22:14;;;;;;;17.33;9.90;;;;;;;6.35;100.00;93551.66;5034232;28;20452;-89
2022/01/10 09:24:44;;;;;;;13.50;7.73;;;;;;;6.48;100.00;93554.00;5034415;28;20456;-91
2022/01/10 09:27:11;;;;;;;10.83;8.03;;;;;;;6.52;100.00;93550.13;5034153;28;20457;-88
2022/01/10 09:29:40;;;;;;;14.50;9.27;;;;;;;6.51;100.00;93551.09;5034065;28;20454;-91
2022/01/10 09:32:08;;;;;;;19.80;10.90;;;;;;;6.59;100.00;93553.81;5034177;28;20965;-89
2022/01/10 09:34:35;;;;;;;30.80;23.70;;;;;;;6.49;100.00;93543.44;5034400;28;20491;-91
2022/01/10 09:37:03;;;;;;;17.43;9.03;;;;;;;6.39;100.00;93547.84;5033870;28;20459;-89
2022/01/10 09:39:30;;;;;;;14.80;9.10;;;;;;;6.31;100.00;93555.50;5033687;28;20483;-89
2022/01/10 09:41:57;;;;;;;14.87;9.37;;;;;;;6.29;100.00;93553.97;5033779;28;20451;-89
2022/01/10 09:44:25;;;;;;;18.97;10.80;;;;;;;6.30;100.00;93553.03;5034075;28;21007;-88
2022/01/10 09:46:53;;;;;;;28.00;16.00;;;;;;;6.20;100.00;93551.25;5034388;28;20453;-89
2022/01/10 09:49:22;;;;;;;22.37;13.97;;;;;;;6.31;100.00;93550.28;5034254;28;20479;-90
2022/01/10 09:51:49;;;;;;;20.60;10.43;;;;;;;6.15;100.00;93555.22;5034141;28;20821;-90
2022/01/10 09:54:16;;;;;;;16.00;10.13;;;;;;;6.32;100.00;93546.72;5034117;28;20865;-89
2022/01/10 09:56:47;;;;;;;16.33;10.50;;;;;;;6.29;100.00;93553.97;5034142;28;20452;-88
2022/01/10 09:59:15;;;;;;;17.30;10.37;;;;;;;6.35;100.00;93545.63;5033993;28;20554;-89
2022/01/10 10:01:43;;;;;;;15.73;11.40;;;;;;;6.43;100.00;93545.78;5033896;28;20981;-89
2022/01/10 10:04:12;;;;;;;14.93;10.30;;;;;;;6.38;100.00;93555.78;5034127;28;20782;-89
2022/01/10 10:06:41;;;;;;;13.40;9.80;;;;;;;6.37;100.00;93543.72;5034609;28;20459;-89
2022/01/10 10:09:10;;;;;;;16.87;11.47;;;;;;;6.46;100.00;93545.50;5034108;28;20462;-90
2022/01/10 10:11:39;;;;;;;17.63;11.60;;;;;;;6.47;100.00;93547.94;5034259;28;20446;-89
2022/01/10 10:14:08;;;;;;;25.03;14.97;;;;;;;6.49;100.00;93547.81;5033942;28;20450;-89
2022/01/10 10:16:37;;;;;;;30.90;16.93;;;;;;;6.57;100.00;93545.31;5033909;28;20453;-90
2022/01/10 10:19:05;;;;;;;37.23;21.20;;;;;;;6.72;100.00;93543.13;5033550;28;20983;-89
2022/01/10 10:21:32;;;;;;;40.70;22.97;;;;;;;6.74;100.00;93549.84;5037065;28;20440;-91
2022/01/10 10:24:03;;;;;;;23.80;14.80;;;;;;;6.75;100.00;93543.66;5037487;28;20486;-94
2022/01/10 10:26:31;;;;;;;32.73;17.97;;;;;;;6.80;100.00;93551.88;5037775;28;20464;-92
2022/01/10 10:28:59;;;;;;;39.40;18.23;;;;;;;6.89;100.00;93546.78;5037842;28;20454;-91
2022/01/10 10:31:28;;;;;;;20.90;13.87;;;;;;;6.84;100.00;93550.63;5037856;28;20450;-92
2022/01/10 10:33:56;;;;;;;26.83;13.60;;;;;;;6.82;100.00;93543.91;5037303;28;20490;-90
2022/01/10 10:36:25;;;;;;;30.23;15.17;;;;;;;6.83;100.00;93543.78;5037804;28;20531;-92
2022/01/10 10:38:52;;;;;;;30.63;15.77;;;;;;;6.77;100.00;93544.34;5039063;28;20582;-93
2022/01/10 10:41:21;;;;;;;29.63;14.27;;;;;;;6.87;100.00;93541.72;5037652;28;20454;-91
2022/01/10 10:43:50;;;;;;;30.73;15.30;;;;;;;6.94;100.00;93539.34;5037535;28;20479;-90
2022/01/10 10:46:18;;;;;;;22.33;14.00;;;;;;;7.04;100.00;93540.16;5036948;28;20453;-89
2022/01/10 10:48:49;;;;;;;40.97;18.87;;;;;;;7.03;100.00;93541.94;5037927;28;20515;-88
2022/01/10 10:51:16;;;;;;;31.03;15.70;;;;;;;6.91;100.00;93544.84;5037529;28;20464;-92
2022/01/10 10:53:43;;;;;;;30.90;15.70;;;;;;;6.95;100.00;93546.25;5038300;28;20458;-90
2022/01/10 10:56:10;;;;;;;31.20;16.07;;;;;;;6.89;100.00;93545.00;5038371;28;20488;-92
2022/01/10 10:58:40;;;;;;;30.27;17.27;;;;;;;6.96;100.00;93546.09;5037852;28;20479;-90
2022/01/10 11:01:08;;;;;;;21.10;13.53;;;;;;;7.00;100.00;93552.66;5037816;28;20448;-90
2022/01/10 11:03:35;;;;;;;17.43;9.77;;;;;;;6.94;100.00;93553.25;5039679;28;20457;-89
2022/01/10 11:06:05;;;;;;;18.13;11.87;;;;;;;6.80;100.00;93557.09;5038362;28;20935;-90
2022/01/10 11:08:35;;;;;;;29.57;12.93;;;;;;;6.83;100.00;93556.81;5038022;28;20488;-91
2022/01/10 11:11:03;;;;;;;25.20;10.80;;;;;;;6.76;100.00;93565.34;5038486;28;20453;-90
2022/01/10 11:13:31;;;;;;;72.93;31.43;;;;;;;6.83;100.00;93562.03;5037198;28;20542;-91
2022/01/10 11:16:00;;;;;;;21.50;11.20;;;;;;;6.56;100.00;93561.94;5037634;28;20460;-91
2022/01/10 11:18:28;;;;;;;47.73;20.67;;;;;;;6.68;100.00;93568.66;5036994;28;20483;-90
2022/01/10 11:20:57;;;;;;;10.63;7.93;;;;;;;6.38;100.00;93566.22;5036989;28;20455;-90
2022/01/10 11:23:24;;;;;;;55.10;15.43;;;;;;;6.53;100.00;93562.22;5036834;28;20453;-90
2022/01/10 11:25:51;;;;;;;13.93;10.53;;;;;;;6.67;100.00;93569.63;5039620;28;20527;-91
2022/01/10 11:28:23;;;;;;;12.83;9.70;;;;;;;6.70;100.00;93571.94;5039534;28;20502;-91
2022/01/10 11:30:51;;;;;;;15.70;8.50;;;;;;;6.59;100.00;93564.25;5037778;28;20961;-89
2022/01/10 11:33:22;;;;;;;11.00;9.33;;;;;;;6.42;100.00;93572.78;5036424;28;20460;-90